sensor_id;sensor_type;location;lat;lon;timestamp;P1;durP1;ratioP1;P2;durP2;ratioP2
64188;SDS011;50493;50.970;10.082;2023-03-08T00:00:32;13.18;;;6.57;;
64188;SDS011;50493;50.970;10.082;2023-03-08T00:02:59;11.77;;;7.15;;
64188;SDS011;50493;50.970;10.082;2023-03-08T00:05:25;18.40;;;12.15;;
64188;SDS011;50493;50.970;10.082;2023-03-08T00:07:51;12.18;;;8.18;;
64188;SDS011;50493;50.970;10.082;2023-03-08T00:10:16;13.85;;;8.15;;
64188;SDS011;50493;50.970;10.082;2023-03-08T00:12:42;11.15;;;4.93;;
64188;SDS011;50493;50.970;10.082;2023-03-08T00:15:07;7.30;;;4.05;;
64188;SDS011;50493;50.970;10.082;2023-03-08T00:17:34;8.52;;;4.85;;
64188;SDS011;50493;50.970;10.082;2023-03-08T00:20:02;11.80;;;5.50;;
64188;SDS011;50493;50.970;10.082;2023-03-08T00:22:29;10.85;;;5.47;;
64188;SDS011;50493;50.970;10.082;2023-03-08T00:24:58;11.05;;;5.15;;
64188;SDS011;50493;50.970;10.082;2023-03-08T00:27:23;9.38;;;4.72;;
64188;SDS011;50493;50.970;10.082;2023-03-08T00:29:49;9.55;;;5.45;;
64188;SDS011;50493;50.970;10.082;2023-03-08T00:32:14;10.95;;;5.60;;
64188;SDS011;50493;50.970;10.082;2023-03-08T00:34:40;10.27;;;5.22;;
64188;SDS011;50493;50.970;10.082;2023-03-08T00:37:11;9.52;;;4.75;;
64188;SDS011;50493;50.970;10.082;2023-03-08T00:39:36;10.40;;;5.20;;
64188;SDS011;50493;50.970;10.082;2023-03-08T00:42:02;10.15;;;5.13;;
64188;SDS011;50493;50.970;10.082;2023-03-08T00:44:27;9.32;;;4.53;;
64188;SDS011;50493;50.970;10.082;2023-03-08T00:46:53;10.13;;;5.10;;
64188;SDS011;50493;50.970;10.082;2023-03-08T00:49:18;11.45;;;5.72;;
64188;SDS011;50493;50.970;10.082;2023-03-08T00:51:43;8.60;;;4.75;;
64188;SDS011;50493;50.970;10.082;2023-03-08T00:54:10;8.82;;;4.25;;
64188;SDS011;50493;50.970;10.082;2023-03-08T00:56:35;12.60;;;6.13;;
64188;SDS011;50493;50.970;10.082;2023-03-08T00:59:00;8.27;;;4.53;;
64188;SDS011;50493;50.970;10.082;2023-03-08T01:01:26;7.53;;;4.28;;
64188;SDS011;50493;50.970;10.082;2023-03-08T01:03:51;8.02;;;4.40;;
64188;SDS011;50493;50.970;10.082;2023-03-08T01:06:17;12.00;;;6.30;;
64188;SDS011;50493;50.970;10.082;2023-03-08T01:08:42;9.73;;;5.18;;
64188;SDS011;50493;50.970;10.082;2023-03-08T01:11:14;10.35;;;5.15;;
64188;SDS011;50493;50.970;10.082;2023-03-08T01:13:42;7.35;;;4.20;;
64188;SDS011;50493;50.970;10.082;2023-03-08T01:16:13;13.88;;;6.88;;
64188;SDS011;50493;50.970;10.082;2023-03-08T01:18:39;10.82;;;6.22;;
64188;SDS011;50493;50.970;10.082;2023-03-08T01:21:04;13.10;;;6.88;;
64188;SDS011;50493;50.970;10.082;2023-03-08T01:23:30;10.25;;;5.57;;
64188;SDS011;50493;50.970;10.082;2023-03-08T01:25:58;9.40;;;4.97;;
64188;SDS011;50493;50.970;10.082;2023-03-08T01:28:26;7.38;;;3.95;;
64188;SDS011;50493;50.970;10.082;2023-03-08T01:30:51;14.02;;;7.88;;
64188;SDS011;50493;50.970;10.082;2023-03-08T01:33:16;8.25;;;4.63;;
64188;SDS011;50493;50.970;10.082;2023-03-08T01:35:42;10.95;;;6.03;;
64188;SDS011;50493;50.970;10.082;2023-03-08T01:38:07;12.85;;;5.93;;
64188;SDS011;50493;50.970;10.082;2023-03-08T01:40:32;14.60;;;7.43;;
64188;SDS011;50493;50.970;10.082;2023-03-08T01:42:57;15.25;;;8.00;;
64188;SDS011;50493;50.970;10.082;2023-03-08T01:48:27;18.95;;;10.27;;
64188;SDS011;50493;50.970;10.082;2023-03-08T01:50:56;19.25;;;10.80;;
64188;SDS011;50493;50.970;10.082;2023-03-08T01:53:22;9.25;;;4.97;;
64188;SDS011;50493;50.970;10.082;2023-03-08T01:55:48;9.13;;;4.80;;
64188;SDS011;50493;50.970;10.082;2023-03-08T01:58:14;22.33;;;12.30;;
64188;SDS011;50493;50.970;10.082;2023-03-08T02:00:39;22.23;;;13.25;;
64188;SDS011;50493;50.970;10.082;2023-03-08T02:03:05;11.25;;;7.05;;
64188;SDS011;50493;50.970;10.082;2023-03-08T02:05:34;21.40;;;12.32;;
64188;SDS011;50493;50.970;10.082;2023-03-08T02:08:01;9.77;;;5.60;;
64188;SDS011;50493;50.970;10.082;2023-03-08T02:10:26;20.23;;;11.93;;
64188;SDS011;50493;50.970;10.082;2023-03-08T02:12:52;18.50;;;10.23;;
64188;SDS011;50493;50.970;10.082;2023-03-08T02:15:18;16.73;;;9.02;;
64188;SDS011;50493;50.970;10.082;2023-03-08T02:17:44;13.20;;;6.28;;
64188;SDS011;50493;50.970;10.082;2023-03-08T02:20:10;13.48;;;6.80;;
64188;SDS011;50493;50.970;10.082;2023-03-08T02:22:40;22.30;;;9.27;;
64188;SDS011;50493;50.970;10.082;2023-03-08T02:25:09;14.30;;;7.05;;
64188;SDS011;50493;50.970;10.082;2023-03-08T02:27:38;10.82;;;6.20;;
64188;SDS011;50493;50.970;10.082;2023-03-08T02:30:04;18.10;;;9.00;;
64188;SDS011;50493;50.970;10.082;2023-03-08T02:32:30;19.25;;;9.35;;
64188;SDS011;50493;50.970;10.082;2023-03-08T02:34:55;19.55;;;10.80;;
64188;SDS011;50493;50.970;10.082;2023-03-08T02:37:20;16.35;;;9.05;;
64188;SDS011;50493;50.970;10.082;2023-03-08T02:39:47;17.77;;;10.45;;
64188;SDS011;50493;50.970;10.082;2023-03-08T02:42:12;11.02;;;6.15;;
64188;SDS011;50493;50.970;10.082;2023-03-08T02:44:38;13.77;;;6.97;;
64188;SDS011;50493;50.970;10.082;2023-03-08T02:47:03;10.95;;;6.20;;
64188;SDS011;50493;50.970;10.082;2023-03-08T02:49:29;15.70;;;7.68;;
64188;SDS011;50493;50.970;10.082;2023-03-08T02:51:54;16.38;;;9.13;;
64188;SDS011;50493;50.970;10.082;2023-03-08T02:54:19;15.47;;;7.77;;
64188;SDS011;50493;50.970;10.082;2023-03-08T02:56:46;16.45;;;8.57;;
64188;SDS011;50493;50.970;10.082;2023-03-08T02:59:11;10.77;;;6.35;;
64188;SDS011;50493;50.970;10.082;2023-03-08T03:01:37;11.27;;;6.55;;
64188;SDS011;50493;50.970;10.082;2023-03-08T03:04:02;14.55;;;8.13;;
64188;SDS011;50493;50.970;10.082;2023-03-08T03:06:28;17.13;;;9.40;;
64188;SDS011;50493;50.970;10.082;2023-03-08T03:08:53;13.82;;;9.07;;
64188;SDS011;50493;50.970;10.082;2023-03-08T03:11:19;12.23;;;6.72;;
64188;SDS011;50493;50.970;10.082;2023-03-08T03:13:52;16.50;;;9.48;;
64188;SDS011;50493;50.970;10.082;2023-03-08T03:16:18;12.10;;;6.82;;
64188;SDS011;50493;50.970;10.082;2023-03-08T03:18:43;12.13;;;7.05;;
64188;SDS011;50493;50.970;10.082;2023-03-08T03:21:10;12.10;;;6.40;;
64188;SDS011;50493;50.970;10.082;2023-03-08T03:23:37;13.88;;;7.07;;
64188;SDS011;50493;50.970;10.082;2023-03-08T03:26:03;13.05;;;6.88;;
64188;SDS011;50493;50.970;10.082;2023-03-08T03:28:29;15.32;;;8.32;;
64188;SDS011;50493;50.970;10.082;2023-03-08T03:30:56;14.47;;;7.17;;
64188;SDS011;50493;50.970;10.082;2023-03-08T03:33:21;12.30;;;6.22;;
64188;SDS011;50493;50.970;10.082;2023-03-08T03:35:47;13.70;;;6.90;;
64188;SDS011;50493;50.970;10.082;2023-03-08T03:38:12;14.25;;;6.85;;
64188;SDS011;50493;50.970;10.082;2023-03-08T03:40:37;15.32;;;7.50;;
64188;SDS011;50493;50.970;10.082;2023-03-08T03:43:03;14.98;;;7.38;;
64188;SDS011;50493;50.970;10.082;2023-03-08T03:45:28;17.20;;;7.95;;
64188;SDS011;50493;50.970;10.082;2023-03-08T03:47:55;17.75;;;7.95;;
64188;SDS011;50493;50.970;10.082;2023-03-08T03:50:20;14.75;;;7.35;;
64188;SDS011;50493;50.970;10.082;2023-03-08T03:52:45;14.40;;;7.60;;
64188;SDS011;50493;50.970;10.082;2023-03-08T03:55:11;14.77;;;7.68;;
64188;SDS011;50493;50.970;10.082;2023-03-08T03:57:36;19.35;;;8.48;;
64188;SDS011;50493;50.970;10.082;2023-03-08T04:00:02;17.73;;;8.57;;
64188;SDS011;50493;50.970;10.082;2023-03-08T04:02:29;11.93;;;6.63;;
64188;SDS011;50493;50.970;10.082;2023-03-08T04:04:56;13.02;;;7.60;;
64188;SDS011;50493;50.970;10.082;2023-03-08T04:07:21;18.52;;;10.23;;
64188;SDS011;50493;50.970;10.082;2023-03-08T04:09:47;17.70;;;11.00;;
64188;SDS011;50493;50.970;10.082;2023-03-08T04:12:12;11.82;;;6.90;;
64188;SDS011;50493;50.970;10.082;2023-03-08T04:14:38;15.20;;;7.15;;
64188;SDS011;50493;50.970;10.082;2023-03-08T04:17:04;15.10;;;8.73;;
64188;SDS011;50493;50.970;10.082;2023-03-08T04:19:29;15.10;;;8.45;;
64188;SDS011;50493;50.970;10.082;2023-03-08T04:21:56;14.68;;;8.68;;
64188;SDS011;50493;50.970;10.082;2023-03-08T04:24:21;12.00;;;6.45;;
64188;SDS011;50493;50.970;10.082;2023-03-08T04:26:47;14.93;;;8.23;;
64188;SDS011;50493;50.970;10.082;2023-03-08T04:29:12;14.82;;;8.18;;
64188;SDS011;50493;50.970;10.082;2023-03-08T04:31:37;15.98;;;9.95;;
64188;SDS011;50493;50.970;10.082;2023-03-08T04:34:03;12.57;;;6.30;;
64188;SDS011;50493;50.970;10.082;2023-03-08T04:36:29;16.15;;;9.00;;
64188;SDS011;50493;50.970;10.082;2023-03-08T04:38:56;12.70;;;7.10;;
64188;SDS011;50493;50.970;10.082;2023-03-08T04:41:21;13.45;;;7.22;;
64188;SDS011;50493;50.970;10.082;2023-03-08T04:43:48;11.00;;;6.00;;
64188;SDS011;50493;50.970;10.082;2023-03-08T04:46:15;12.40;;;6.40;;
64188;SDS011;50493;50.970;10.082;2023-03-08T04:48:41;12.27;;;5.85;;
64188;SDS011;50493;50.970;10.082;2023-03-08T04:51:07;12.35;;;6.28;;
64188;SDS011;50493;50.970;10.082;2023-03-08T04:53:34;11.95;;;6.20;;
64188;SDS011;50493;50.970;10.082;2023-03-08T04:56:02;10.73;;;5.68;;
64188;SDS011;50493;50.970;10.082;2023-03-08T04:58:27;11.20;;;6.13;;
64188;SDS011;50493;50.970;10.082;2023-03-08T05:00:55;11.95;;;6.72;;
64188;SDS011;50493;50.970;10.082;2023-03-08T05:03:21;11.30;;;6.10;;
64188;SDS011;50493;50.970;10.082;2023-03-08T05:05:47;12.50;;;6.47;;
64188;SDS011;50493;50.970;10.082;2023-03-08T05:08:14;10.27;;;6.03;;
64188;SDS011;50493;50.970;10.082;2023-03-08T05:10:39;10.48;;;5.72;;
64188;SDS011;50493;50.970;10.082;2023-03-08T05:13:06;11.52;;;6.43;;
64188;SDS011;50493;50.970;10.082;2023-03-08T05:15:31;11.18;;;6.20;;
64188;SDS011;50493;50.970;10.082;2023-03-08T05:17:57;11.00;;;6.35;;
64188;SDS011;50493;50.970;10.082;2023-03-08T05:20:22;11.82;;;5.82;;
64188;SDS011;50493;50.970;10.082;2023-03-08T05:22:49;11.70;;;5.75;;
64188;SDS011;50493;50.970;10.082;2023-03-08T05:25:14;10.05;;;5.38;;
64188;SDS011;50493;50.970;10.082;2023-03-08T05:27:40;9.98;;;5.60;;
64188;SDS011;50493;50.970;10.082;2023-03-08T05:30:07;12.43;;;6.53;;
64188;SDS011;50493;50.970;10.082;2023-03-08T05:32:33;11.52;;;6.18;;
64188;SDS011;50493;50.970;10.082;2023-03-08T05:34:58;10.80;;;6.30;;
64188;SDS011;50493;50.970;10.082;2023-03-08T05:37:24;10.68;;;5.90;;
64188;SDS011;50493;50.970;10.082;2023-03-08T05:39:49;10.77;;;5.82;;
64188;SDS011;50493;50.970;10.082;2023-03-08T05:42:15;10.93;;;5.90;;
64188;SDS011;50493;50.970;10.082;2023-03-08T05:44:40;9.10;;;5.15;;
64188;SDS011;50493;50.970;10.082;2023-03-08T05:47:07;10.68;;;5.68;;
64188;SDS011;50493;50.970;10.082;2023-03-08T05:49:32;10.00;;;5.45;;
64188;SDS011;50493;50.970;10.082;2023-03-08T05:51:58;10.65;;;5.68;;
64188;SDS011;50493;50.970;10.082;2023-03-08T05:54:23;9.75;;;5.30;;
64188;SDS011;50493;50.970;10.082;2023-03-08T05:56:48;10.80;;;5.68;;
64188;SDS011;50493;50.970;10.082;2023-03-08T05:59:14;10.05;;;5.63;;
64188;SDS011;50493;50.970;10.082;2023-03-08T06:01:39;10.02;;;5.40;;
64188;SDS011;50493;50.970;10.082;2023-03-08T06:04:06;9.73;;;5.55;;
64188;SDS011;50493;50.970;10.082;2023-03-08T06:06:31;9.85;;;5.10;;
64188;SDS011;50493;50.970;10.082;2023-03-08T06:08:57;8.77;;;4.70;;
64188;SDS011;50493;50.970;10.082;2023-03-08T06:11:22;9.68;;;5.40;;
64188;SDS011;50493;50.970;10.082;2023-03-08T06:13:48;9.30;;;4.82;;
64188;SDS011;50493;50.970;10.082;2023-03-08T06:16:13;10.38;;;5.45;;
64188;SDS011;50493;50.970;10.082;2023-03-08T06:18:40;10.00;;;4.88;;
64188;SDS011;50493;50.970;10.082;2023-03-08T06:21:09;10.13;;;5.18;;
64188;SDS011;50493;50.970;10.082;2023-03-08T06:23:36;10.30;;;5.32;;
64188;SDS011;50493;50.970;10.082;2023-03-08T06:26:02;9.15;;;5.07;;
64188;SDS011;50493;50.970;10.082;2023-03-08T06:28:29;8.63;;;4.93;;
64188;SDS011;50493;50.970;10.082;2023-03-08T06:30:55;8.75;;;4.50;;
64188;SDS011;50493;50.970;10.082;2023-03-08T06:33:21;7.40;;;3.80;;
64188;SDS011;50493;50.970;10.082;2023-03-08T06:35:54;7.28;;;3.75;;
64188;SDS011;50493;50.970;10.082;2023-03-08T06:38:22;6.97;;;3.88;;
64188;SDS011;50493;50.970;10.082;2023-03-08T06:40:48;9.13;;;4.50;;
64188;SDS011;50493;50.970;10.082;2023-03-08T06:43:14;7.93;;;4.20;;
64188;SDS011;50493;50.970;10.082;2023-03-08T06:45:39;8.57;;;4.78;;
64188;SDS011;50493;50.970;10.082;2023-03-08T06:48:05;9.05;;;4.75;;
64188;SDS011;50493;50.970;10.082;2023-03-08T06:50:31;9.15;;;4.35;;
64188;SDS011;50493;50.970;10.082;2023-03-08T06:52:56;8.27;;;4.18;;
64188;SDS011;50493;50.970;10.082;2023-03-08T06:55:22;8.02;;;4.47;;
64188;SDS011;50493;50.970;10.082;2023-03-08T06:57:48;9.63;;;5.03;;
64188;SDS011;50493;50.970;10.082;2023-03-08T07:00:14;7.95;;;4.47;;
64188;SDS011;50493;50.970;10.082;2023-03-08T07:02:39;8.75;;;4.75;;
64188;SDS011;50493;50.970;10.082;2023-03-08T07:05:05;8.23;;;4.53;;
64188;SDS011;50493;50.970;10.082;2023-03-08T07:07:31;10.20;;;4.97;;
64188;SDS011;50493;50.970;10.082;2023-03-08T07:09:56;8.23;;;4.30;;
64188;SDS011;50493;50.970;10.082;2023-03-08T07:12:23;9.02;;;4.60;;
64188;SDS011;50493;50.970;10.082;2023-03-08T07:14:50;8.00;;;4.07;;
64188;SDS011;50493;50.970;10.082;2023-03-08T07:17:15;8.15;;;4.10;;
64188;SDS011;50493;50.970;10.082;2023-03-08T07:19:40;7.93;;;4.07;;
64188;SDS011;50493;50.970;10.082;2023-03-08T07:22:06;8.90;;;4.18;;
64188;SDS011;50493;50.970;10.082;2023-03-08T07:24:31;9.00;;;4.35;;
64188;SDS011;50493;50.970;10.082;2023-03-08T07:26:57;8.38;;;4.65;;
64188;SDS011;50493;50.970;10.082;2023-03-08T07:29:23;7.05;;;3.50;;
64188;SDS011;50493;50.970;10.082;2023-03-08T07:31:49;7.78;;;4.22;;
64188;SDS011;50493;50.970;10.082;2023-03-08T07:34:14;7.60;;;3.97;;
64188;SDS011;50493;50.970;10.082;2023-03-08T07:36:39;7.78;;;3.97;;
64188;SDS011;50493;50.970;10.082;2023-03-08T07:39:05;6.70;;;3.42;;
64188;SDS011;50493;50.970;10.082;2023-03-08T07:41:30;7.90;;;4.07;;
64188;SDS011;50493;50.970;10.082;2023-03-08T07:43:57;7.32;;;3.70;;
64188;SDS011;50493;50.970;10.082;2023-03-08T07:46:23;7.05;;;3.55;;
64188;SDS011;50493;50.970;10.082;2023-03-08T07:48:50;7.60;;;4.03;;
64188;SDS011;50493;50.970;10.082;2023-03-08T07:51:16;8.15;;;4.20;;
64188;SDS011;50493;50.970;10.082;2023-03-08T07:53:41;6.57;;;3.55;;
64188;SDS011;50493;50.970;10.082;2023-03-08T07:56:06;6.15;;;3.47;;
64188;SDS011;50493;50.970;10.082;2023-03-08T07:58:32;6.57;;;3.67;;
64188;SDS011;50493;50.970;10.082;2023-03-08T08:00:57;7.30;;;3.30;;
64188;SDS011;50493;50.970;10.082;2023-03-08T08:03:24;7.20;;;3.67;;
64188;SDS011;50493;50.970;10.082;2023-03-08T08:05:49;6.38;;;3.50;;
64188;SDS011;50493;50.970;10.082;2023-03-08T08:08:15;6.22;;;3.25;;
64188;SDS011;50493;50.970;10.082;2023-03-08T08:10:41;6.22;;;2.90;;
64188;SDS011;50493;50.970;10.082;2023-03-08T08:13:07;5.82;;;3.38;;
64188;SDS011;50493;50.970;10.082;2023-03-08T08:15:32;5.00;;;2.63;;
64188;SDS011;50493;50.970;10.082;2023-03-08T08:17:57;6.43;;;3.35;;
64188;SDS011;50493;50.970;10.082;2023-03-08T08:20:24;5.05;;;2.40;;
64188;SDS011;50493;50.970;10.082;2023-03-08T08:22:50;4.93;;;2.50;;
64188;SDS011;50493;50.970;10.082;2023-03-08T08:25:17;6.25;;;3.00;;
64188;SDS011;50493;50.970;10.082;2023-03-08T08:27:43;4.28;;;2.35;;
64188;SDS011;50493;50.970;10.082;2023-03-08T08:30:11;5.80;;;2.53;;
64188;SDS011;50493;50.970;10.082;2023-03-08T08:32:37;7.55;;;3.47;;
64188;SDS011;50493;50.970;10.082;2023-03-08T08:35:02;15.68;;;7.72;;
64188;SDS011;50493;50.970;10.082;2023-03-08T08:37:30;6.82;;;3.63;;
64188;SDS011;50493;50.970;10.082;2023-03-08T08:39:56;6.28;;;3.67;;
64188;SDS011;50493;50.970;10.082;2023-03-08T08:42:21;7.25;;;3.60;;
64188;SDS011;50493;50.970;10.082;2023-03-08T08:44:46;7.28;;;3.50;;
64188;SDS011;50493;50.970;10.082;2023-03-08T08:47:12;6.70;;;3.53;;
64188;SDS011;50493;50.970;10.082;2023-03-08T08:49:37;7.15;;;3.90;;
64188;SDS011;50493;50.970;10.082;2023-03-08T08:52:03;13.88;;;6.38;;
64188;SDS011;50493;50.970;10.082;2023-03-08T08:54:30;9.00;;;4.50;;
64188;SDS011;50493;50.970;10.082;2023-03-08T08:56:57;10.10;;;5.18;;
64188;SDS011;50493;50.970;10.082;2023-03-08T08:59:23;5.95;;;3.20;;
64188;SDS011;50493;50.970;10.082;2023-03-08T09:01:48;6.38;;;3.55;;
64188;SDS011;50493;50.970;10.082;2023-03-08T09:04:14;6.30;;;3.38;;
64188;SDS011;50493;50.970;10.082;2023-03-08T09:06:41;6.13;;;3.35;;
64188;SDS011;50493;50.970;10.082;2023-03-08T09:09:06;6.57;;;3.40;;
64188;SDS011;50493;50.970;10.082;2023-03-08T09:11:34;6.60;;;3.60;;
64188;SDS011;50493;50.970;10.082;2023-03-08T09:13:59;5.80;;;3.13;;
64188;SDS011;50493;50.970;10.082;2023-03-08T09:16:27;6.68;;;3.25;;
64188;SDS011;50493;50.970;10.082;2023-03-08T09:18:54;7.45;;;3.35;;
64188;SDS011;50493;50.970;10.082;2023-03-08T09:21:21;7.32;;;3.70;;
64188;SDS011;50493;50.970;10.082;2023-03-08T09:23:47;7.30;;;4.10;;
64188;SDS011;50493;50.970;10.082;2023-03-08T09:26:13;6.57;;;3.50;;
64188;SDS011;50493;50.970;10.082;2023-03-08T09:28:39;7.38;;;3.05;;
64188;SDS011;50493;50.970;10.082;2023-03-08T09:31:05;5.95;;;3.22;;
64188;SDS011;50493;50.970;10.082;2023-03-08T09:36:01;5.97;;;3.08;;
64188;SDS011;50493;50.970;10.082;2023-03-08T09:38:26;5.88;;;3.10;;
64188;SDS011;50493;50.970;10.082;2023-03-08T09:40:55;5.70;;;3.10;;
64188;SDS011;50493;50.970;10.082;2023-03-08T09:43:31;5.72;;;3.13;;
64188;SDS011;50493;50.970;10.082;2023-03-08T09:46:08;6.32;;;3.10;;
64188;SDS011;50493;50.970;10.082;2023-03-08T09:48:37;8.02;;;4.05;;
64188;SDS011;50493;50.970;10.082;2023-03-08T09:51:06;5.55;;;3.00;;
64188;SDS011;50493;50.970;10.082;2023-03-08T09:53:37;6.93;;;3.55;;
64188;SDS011;50493;50.970;10.082;2023-03-08T09:56:06;7.07;;;3.78;;
64188;SDS011;50493;50.970;10.082;2023-03-08T09:58:41;8.68;;;4.40;;
64188;SDS011;50493;50.970;10.082;2023-03-08T10:01:19;6.35;;;3.03;;
64188;SDS011;50493;50.970;10.082;2023-03-08T10:06:44;15.55;;;8.25;;
64188;SDS011;50493;50.970;10.082;2023-03-08T10:09:20;6.50;;;3.40;;
64188;SDS011;50493;50.970;10.082;2023-03-08T10:11:53;6.78;;;3.40;;
64188;SDS011;50493;50.970;10.082;2023-03-08T10:14:28;11.98;;;5.93;;
64188;SDS011;50493;50.970;10.082;2023-03-08T10:16:57;10.75;;;5.20;;
64188;SDS011;50493;50.970;10.082;2023-03-08T10:19:27;12.15;;;6.47;;
64188;SDS011;50493;50.970;10.082;2023-03-08T10:21:57;10.95;;;5.32;;
64188;SDS011;50493;50.970;10.082;2023-03-08T10:24:33;7.72;;;4.07;;
64188;SDS011;50493;50.970;10.082;2023-03-08T10:27:05;8.38;;;3.95;;
64188;SDS011;50493;50.970;10.082;2023-03-08T10:29:47;11.93;;;6.43;;
64188;SDS011;50493;50.970;10.082;2023-03-08T10:32:13;12.07;;;6.40;;
64188;SDS011;50493;50.970;10.082;2023-03-08T10:34:39;14.15;;;6.95;;
64188;SDS011;50493;50.970;10.082;2023-03-08T10:37:04;13.10;;;6.97;;
64188;SDS011;50493;50.970;10.082;2023-03-08T10:39:31;10.50;;;5.10;;
64188;SDS011;50493;50.970;10.082;2023-03-08T10:41:57;7.90;;;4.05;;
64188;SDS011;50493;50.970;10.082;2023-03-08T10:44:31;9.30;;;4.78;;
64188;SDS011;50493;50.970;10.082;2023-03-08T10:47:01;12.05;;;6.47;;
64188;SDS011;50493;50.970;10.082;2023-03-08T10:49:28;10.52;;;5.35;;
64188;SDS011;50493;50.970;10.082;2023-03-08T10:51:54;12.05;;;6.75;;
64188;SDS011;50493;50.970;10.082;2023-03-08T10:54:21;12.95;;;7.05;;
64188;SDS011;50493;50.970;10.082;2023-03-08T10:56:50;11.40;;;5.85;;
64188;SDS011;50493;50.970;10.082;2023-03-08T10:59:18;10.93;;;5.60;;
64188;SDS011;50493;50.970;10.082;2023-03-08T11:01:48;14.68;;;7.80;;
64188;SDS011;50493;50.970;10.082;2023-03-08T11:04:17;16.55;;;7.70;;
64188;SDS011;50493;50.970;10.082;2023-03-08T11:06:44;14.00;;;6.95;;
64188;SDS011;50493;50.970;10.082;2023-03-08T11:09:17;15.50;;;7.80;;
64188;SDS011;50493;50.970;10.082;2023-03-08T11:11:44;9.27;;;4.82;;
64188;SDS011;50493;50.970;10.082;2023-03-08T11:14:10;9.02;;;4.40;;
64188;SDS011;50493;50.970;10.082;2023-03-08T11:16:40;10.77;;;5.32;;
64188;SDS011;50493;50.970;10.082;2023-03-08T11:19:14;11.05;;;5.65;;
64188;SDS011;50493;50.970;10.082;2023-03-08T11:21:56;9.63;;;4.95;;
64188;SDS011;50493;50.970;10.082;2023-03-08T11:24:31;10.77;;;5.25;;
64188;SDS011;50493;50.970;10.082;2023-03-08T11:27:09;14.65;;;7.80;;
64188;SDS011;50493;50.970;10.082;2023-03-08T11:29:44;18.52;;;8.20;;
64188;SDS011;50493;50.970;10.082;2023-03-08T11:32:25;8.55;;;4.80;;
64188;SDS011;50493;50.970;10.082;2023-03-08T11:35:08;11.60;;;5.40;;
64188;SDS011;50493;50.970;10.082;2023-03-08T11:37:37;13.73;;;7.53;;
64188;SDS011;50493;50.970;10.082;2023-03-08T11:40:13;12.13;;;6.20;;
64188;SDS011;50493;50.970;10.082;2023-03-08T11:42:53;14.68;;;7.60;;
64188;SDS011;50493;50.970;10.082;2023-03-08T11:45:32;13.35;;;7.10;;
64188;SDS011;50493;50.970;10.082;2023-03-08T11:48:09;13.15;;;6.68;;
64188;SDS011;50493;50.970;10.082;2023-03-08T11:50:57;15.43;;;8.10;;
64188;SDS011;50493;50.970;10.082;2023-03-08T11:53:32;13.73;;;6.82;;
64188;SDS011;50493;50.970;10.082;2023-03-08T11:56:10;13.30;;;6.65;;
64188;SDS011;50493;50.970;10.082;2023-03-08T11:58:51;11.30;;;5.22;;
64188;SDS011;50493;50.970;10.082;2023-03-08T12:01:21;10.15;;;5.10;;
64188;SDS011;50493;50.970;10.082;2023-03-08T12:03:50;9.68;;;5.05;;
64188;SDS011;50493;50.970;10.082;2023-03-08T12:06:21;10.07;;;4.95;;
64188;SDS011;50493;50.970;10.082;2023-03-08T12:08:51;9.77;;;4.78;;
64188;SDS011;50493;50.970;10.082;2023-03-08T12:11:22;11.60;;;6.03;;
64188;SDS011;50493;50.970;10.082;2023-03-08T12:13:52;8.30;;;4.80;;
64188;SDS011;50493;50.970;10.082;2023-03-08T12:16:22;9.45;;;4.85;;
64188;SDS011;50493;50.970;10.082;2023-03-08T12:18:50;7.82;;;4.20;;
64188;SDS011;50493;50.970;10.082;2023-03-08T12:21:23;11.63;;;6.15;;
64188;SDS011;50493;50.970;10.082;2023-03-08T12:24:00;8.35;;;4.45;;
64188;SDS011;50493;50.970;10.082;2023-03-08T12:26:37;8.70;;;5.00;;
64188;SDS011;50493;50.970;10.082;2023-03-08T12:29:09;16.45;;;8.35;;
64188;SDS011;50493;50.970;10.082;2023-03-08T12:31:42;7.63;;;4.53;;
64188;SDS011;50493;50.970;10.082;2023-03-08T12:34:13;15.18;;;7.90;;
64188;SDS011;50493;50.970;10.082;2023-03-08T12:36:53;13.13;;;6.30;;
64188;SDS011;50493;50.970;10.082;2023-03-08T12:39:23;11.10;;;6.35;;
64188;SDS011;50493;50.970;10.082;2023-03-08T12:41:58;10.88;;;5.90;;
64188;SDS011;50493;50.970;10.082;2023-03-08T12:44:26;12.10;;;6.35;;
64188;SDS011;50493;50.970;10.082;2023-03-08T12:46:54;8.98;;;4.70;;
64188;SDS011;50493;50.970;10.082;2023-03-08T12:49:25;8.48;;;4.43;;
64188;SDS011;50493;50.970;10.082;2023-03-08T12:51:59;10.13;;;5.35;;
64188;SDS011;50493;50.970;10.082;2023-03-08T12:54:27;10.55;;;4.88;;
64188;SDS011;50493;50.970;10.082;2023-03-08T12:56:55;9.45;;;5.05;;
64188;SDS011;50493;50.970;10.082;2023-03-08T12:59:27;8.52;;;4.90;;
64188;SDS011;50493;50.970;10.082;2023-03-08T13:01:59;8.88;;;4.68;;
64188;SDS011;50493;50.970;10.082;2023-03-08T13:04:26;7.57;;;4.22;;
64188;SDS011;50493;50.970;10.082;2023-03-08T13:07:11;8.77;;;4.25;;
64188;SDS011;50493;50.970;10.082;2023-03-08T13:09:48;8.57;;;4.40;;
64188;SDS011;50493;50.970;10.082;2023-03-08T13:12:20;9.30;;;5.40;;
64188;SDS011;50493;50.970;10.082;2023-03-08T13:15:00;7.97;;;4.15;;
64188;SDS011;50493;50.970;10.082;2023-03-08T13:17:47;8.52;;;4.75;;
64188;SDS011;50493;50.970;10.082;2023-03-08T13:20:16;9.38;;;4.75;;
64188;SDS011;50493;50.970;10.082;2023-03-08T13:22:47;10.32;;;5.68;;
64188;SDS011;50493;50.970;10.082;2023-03-08T13:25:24;9.13;;;4.57;;
64188;SDS011;50493;50.970;10.082;2023-03-08T13:28:03;9.75;;;5.18;;
64188;SDS011;50493;50.970;10.082;2023-03-08T13:30:31;8.43;;;4.63;;
64188;SDS011;50493;50.970;10.082;2023-03-08T13:32:58;8.80;;;4.43;;
64188;SDS011;50493;50.970;10.082;2023-03-08T13:35:24;8.23;;;4.60;;
64188;SDS011;50493;50.970;10.082;2023-03-08T13:37:52;8.75;;;4.90;;
64188;SDS011;50493;50.970;10.082;2023-03-08T13:40:19;9.05;;;4.75;;
64188;SDS011;50493;50.970;10.082;2023-03-08T13:42:52;9.20;;;5.22;;
64188;SDS011;50493;50.970;10.082;2023-03-08T13:45:19;9.25;;;4.47;;
64188;SDS011;50493;50.970;10.082;2023-03-08T13:47:45;8.27;;;4.68;;
64188;SDS011;50493;50.970;10.082;2023-03-08T13:50:15;8.70;;;4.63;;
64188;SDS011;50493;50.970;10.082;2023-03-08T13:52:43;9.85;;;4.88;;
64188;SDS011;50493;50.970;10.082;2023-03-08T13:55:14;10.02;;;5.43;;
64188;SDS011;50493;50.970;10.082;2023-03-08T13:57:45;18.33;;;8.35;;
64188;SDS011;50493;50.970;10.082;2023-03-08T14:00:22;15.35;;;8.55;;
64188;SDS011;50493;50.970;10.082;2023-03-08T14:02:49;9.82;;;5.10;;
64188;SDS011;50493;50.970;10.082;2023-03-08T14:05:16;9.85;;;5.10;;
64188;SDS011;50493;50.970;10.082;2023-03-08T14:07:43;11.93;;;5.32;;
64188;SDS011;50493;50.970;10.082;2023-03-08T14:12:39;8.98;;;4.63;;
64188;SDS011;50493;50.970;10.082;2023-03-08T14:15:04;9.68;;;5.00;;
64188;SDS011;50493;50.970;10.082;2023-03-08T14:17:32;8.82;;;4.53;;
64188;SDS011;50493;50.970;10.082;2023-03-08T14:19:59;10.10;;;5.50;;
64188;SDS011;50493;50.970;10.082;2023-03-08T14:22:26;10.27;;;5.55;;
64188;SDS011;50493;50.970;10.082;2023-03-08T14:24:54;10.82;;;5.55;;
64188;SDS011;50493;50.970;10.082;2023-03-08T14:27:29;10.30;;;5.65;;
64188;SDS011;50493;50.970;10.082;2023-03-08T14:29:59;8.75;;;4.57;;
64188;SDS011;50493;50.970;10.082;2023-03-08T14:32:28;9.50;;;5.20;;
64188;SDS011;50493;50.970;10.082;2023-03-08T14:35:03;12.32;;;6.72;;
64188;SDS011;50493;50.970;10.082;2023-03-08T14:37:31;9.63;;;5.55;;
64188;SDS011;50493;50.970;10.082;2023-03-08T14:40:13;9.07;;;5.22;;